Time;durP1;ratioP1;P1;durP2;ratioP2;P2;SDS_P1;SDS_P2;PMS_P1;PMS_P2;Temp;Humidity;BMP_temperature;BMP_pressure;BME280_temperature;BME280_humidity;BME280_pressure;Samples;Min_cycle;Max_cycle;Signal;HPM_P1;HPM_P2
2021/03/26 00:01:23;;;;;;;11.57;10.33;;;;;;;5.64;80.30;98465.34;5017876;28;20791;-68
2021/03/26 00:03:53;;;;;;;11.07;9.97;;;;;;;5.63;80.47;98465.47;5019381;28;20642;-71
2021/03/26 00:06:28;;;;;;;10.93;9.83;;;;;;;5.67;80.40;98476.56;5013689;28;20232;-69
2021/03/26 00:08:55;;;;;;;12.63;10.67;;;;;;;5.53;81.06;98470.63;5020271;28;20235;-70
2021/03/26 00:11:23;;;;;;;12.90;11.60;;;;;;;5.42;81.78;98471.44;5017896;28;20228;-69
2021/03/26 00:13:50;;;;;;;12.17;10.93;;;;;;;5.43;82.06;98477.56;5014594;28;20196;-69
2021/03/26 00:16:17;;;;;;;11.83;10.53;;;;;;;5.30;82.73;98475.03;5023150;28;20608;-69
2021/03/26 00:18:45;;;;;;;11.77;10.03;;;;;;;5.20;83.63;98474.91;5020392;28;20872;-68
2021/03/26 00:21:12;;;;;;;11.10;10.00;;;;;;;5.35;83.09;98475.50;5019943;28;20224;-70
2021/03/26 00:23:39;;;;;;;12.80;10.03;;;;;;;5.13;83.93;98469.28;5022314;28;21885;-70
2021/03/26 00:26:06;;;;;;;12.50;11.00;;;;;;;5.08;84.87;98468.78;5017006;28;20215;-70
2021/03/26 00:28:33;;;;;;;10.80;9.73;;;;;;;5.04;85.21;98469.97;5022617;28;20226;-70
2021/03/26 00:31:00;;;;;;;11.70;10.37;;;;;;;5.09;84.72;98467.84;5022552;28;20207;-69
2021/03/26 00:33:28;;;;;;;11.77;10.50;;;;;;;5.21;84.05;98471.31;5019107;28;20213;-70
2021/03/26 00:35:56;;;;;;;11.50;10.30;;;;;;;5.27;83.79;98478.72;5020740;28;20215;-67
2021/03/26 00:38:23;;;;;;;13.53;10.73;;;;;;;5.40;82.80;98469.91;5023180;28;20204;-69
2021/03/26 00:40:51;;;;;;;11.33;10.23;;;;;;;5.41;82.69;98472.41;5020560;28;20482;-68
2021/03/26 00:43:18;;;;;;;10.10;9.07;;;;;;;5.57;81.68;98461.53;5023324;28;20204;-70
2021/03/26 00:45:46;;;;;;;13.67;10.67;;;;;;;5.71;80.90;98459.63;5018804;28;20204;-68
2021/03/26 00:48:13;;;;;;;9.93;8.93;;;;;;;5.71;80.21;98460.44;5018354;28;20699;-68
2021/03/26 00:50:42;;;;;;;12.97;10.00;;;;;;;5.60;81.35;98453.41;5022324;28;20266;-71
2021/03/26 00:53:13;;;;;;;11.97;9.90;;;;;;;5.39;82.55;98445.41;5017537;28;20228;-70
2021/03/26 00:55:41;;;;;;;10.87;9.70;;;;;;;5.21;83.75;98456.41;5020389;28;20228;-71
2021/03/26 00:58:08;;;;;;;11.00;9.90;;;;;;;5.11;83.99;98452.78;5023508;28;20208;-68
2021/03/26 01:00:36;;;;;;;10.70;9.17;;;;;;;5.04;84.14;98462.09;5021890;28;20212;-69
2021/03/26 01:03:04;;;;;;;12.17;9.33;;;;;;;4.91;84.94;98460.41;5021254;28;20285;-69
2021/03/26 01:05:34;;;;;;;9.83;8.93;;;;;;;4.84;84.61;98463.63;5021334;28;20212;-70
2021/03/26 01:08:01;;;;;;;12.17;10.77;;;;;;;4.88;84.93;98463.28;5022547;28;20224;-69
2021/03/26 01:10:32;;;;;;;11.17;9.73;;;;;;;5.03;84.19;98463.06;5021935;28;20213;-70
2021/03/26 01:12:59;;;;;;;11.20;9.83;;;;;;;5.03;84.33;98453.41;5022343;28;20227;-69
2021/03/26 01:15:27;;;;;;;11.60;10.07;;;;;;;5.04;84.04;98455.06;5020235;28;20209;-68
2021/03/26 01:17:55;;;;;;;12.33;10.17;;;;;;;5.01;83.97;98450.06;5022617;28;20368;-71
2021/03/26 01:20:25;;;;;;;11.77;10.57;;;;;;;4.97;84.46;98453.88;5022812;28;20215;-67
2021/03/26 01:22:52;;;;;;;11.97;10.33;;;;;;;5.05;84.65;98453.25;5020298;28;20315;-71
2021/03/26 01:25:21;;;;;;;10.60;9.50;;;;;;;5.04;84.76;98459.47;5019120;28;20695;-69
2021/03/26 01:27:49;;;;;;;11.77;9.93;;;;;;;5.09;84.67;98453.88;5019600;28;20658;-68
2021/03/26 01:30:19;;;;;;;12.67;10.00;;;;;;;5.12;84.72;98456.25;5018742;28;20204;-68
2021/03/26 01:32:46;;;;;;;11.30;10.17;;;;;;;5.14;84.80;98456.97;5020106;28;20247;-69
2021/03/26 01:35:14;;;;;;;11.13;10.03;;;;;;;5.34;84.36;98460.69;5021434;28;20205;-70
2021/03/26 01:37:40;;;;;;;11.73;10.03;;;;;;;5.55;83.28;98455.56;5015702;28;20201;-68
2021/03/26 01:40:12;;;;;;;11.63;10.27;;;;;;;5.49;83.03;98454.25;5020626;28;20242;-68
2021/03/26 01:42:39;;;;;;;10.83;9.77;;;;;;;5.52;83.52;98460.22;5021781;28;20228;-68
2021/03/26 01:45:13;;;;;;;12.57;9.77;;;;;;;5.36;84.15;98464.88;5017150;28;20208;-70
2021/03/26 01:47:40;;;;;;;13.10;9.57;;;;;;;5.34;84.80;98455.44;5020808;28;20212;-69
2021/03/26 01:50:10;;;;;;;14.17;11.33;;;;;;;5.33;85.20;98457.25;5022501;28;20580;-68
2021/03/26 01:52:37;;;;;;;11.93;10.30;;;;;;;5.52;84.23;98444.47;5020729;28;20542;-68
2021/03/26 01:55:06;;;;;;;10.63;9.63;;;;;;;5.49;84.15;98442.91;5022359;28;20208;-68
2021/03/26 01:57:33;;;;;;;11.03;10.03;;;;;;;5.54;83.30;98443.38;5018794;28;20708;-70
2021/03/26 02:00:09;;;;;;;11.93;10.23;;;;;;;5.42;84.85;98439.91;5019731;28;20231;-69
2021/03/26 02:02:41;;;;;;;10.77;9.50;;;;;;;5.30;85.30;98449.59;5018802;28;20228;-70
2021/03/26 02:05:11;;;;;;;10.87;9.73;;;;;;;5.48;84.45;98447.31;5021533;28;20308;-70
2021/03/26 02:07:38;;;;;;;10.70;9.77;;;;;;;5.28;84.98;98456.75;5021845;28;20247;-70
2021/03/26 02:10:07;;;;;;;14.23;10.53;;;;;;;5.22;85.78;98457.22;5017129;28;20208;-68
2021/03/26 02:12:34;;;;;;;20.17;14.90;;;;;;;5.36;84.85;98456.16;5017207;28;20654;-68
2021/03/26 02:15:07;;;;;;;10.70;9.67;;;;;;;5.34;84.88;98460.69;5018691;28;20573;-69
2021/03/26 02:17:39;;;;;;;10.83;9.73;;;;;;;5.50;84.28;98452.44;5013956;28;20192;-67
2021/03/26 02:20:10;;;;;;;11.80;10.60;;;;;;;5.48;83.98;98457.81;5019880;28;20215;-70
2021/03/26 02:22:37;;;;;;;12.67;10.00;;;;;;;5.54;84.30;98455.69;5020173;28;20220;-69
2021/03/26 02:25:11;;;;;;;11.53;10.33;;;;;;;5.44;84.39;98461.63;5016698;28;20579;-68
2021/03/26 02:27:39;;;;;;;14.50;11.00;;;;;;;5.53;84.19;98461.91;5020071;28;20316;-67
2021/03/26 02:30:11;;;;;;;11.40;10.30;;;;;;;5.39;84.82;98466.44;5013956;28;20398;-68
2021/03/26 02:32:40;;;;;;;11.10;10.00;;;;;;;5.31;85.71;98472.31;5016707;28;20232;-70
2021/03/26 02:35:16;;;;;;;12.00;10.70;;;;;;;5.46;84.83;98475.50;5019142;28;20732;-70
2021/03/26 02:37:45;;;;;;;11.77;10.57;;;;;;;5.41;84.44;98471.59;5013949;28;20201;-66
2021/03/26 02:40:17;;;;;;;13.13;11.70;;;;;;;5.34;85.34;98468.59;5020176;28;20203;-69
2021/03/26 02:42:44;;;;;;;19.20;13.60;;;;;;;5.34;85.64;98468.59;5018156;28;20611;-68
2021/03/26 02:45:16;;;;;;;11.67;10.43;;;;;;;5.44;84.66;98477.41;5020206;28;20213;-68
2021/03/26 02:47:46;;;;;;;14.20;10.60;;;;;;;5.33;85.73;98478.28;5016223;28;20225;-69
2021/03/26 02:50:17;;;;;;;12.10;10.73;;;;;;;5.49;84.84;98477.91;5019123;28;20578;-69
2021/03/26 02:52:49;;;;;;;11.97;10.00;;;;;;;5.39;84.91;98470.88;5019308;28;20231;-69
2021/03/26 02:55:23;;;;;;;10.53;9.63;;;;;;;5.21;86.31;98471.31;5018235;28;20204;-66
2021/03/26 02:57:54;;;;;;;12.43;10.90;;;;;;;5.16;86.85;98463.81;5016943;28;20652;-69
2021/03/26 03:00:24;;;;;;;14.67;10.60;;;;;;;5.04;87.43;98472.59;5015444;28;20716;-68
2021/03/26 03:02:53;;;;;;;11.53;10.43;;;;;;;4.92;88.26;98482.25;5019553;28;20220;-69
2021/03/26 03:05:24;;;;;;;10.57;9.57;;;;;;;5.14;87.04;98473.59;5016129;28;20688;-69
2021/03/26 03:07:54;;;;;;;12.73;10.30;;;;;;;5.12;86.68;98474.66;5019045;28;20232;-66
2021/03/26 03:10:28;;;;;;;11.90;10.07;;;;;;;5.01;87.85;98475.47;5017439;28;20208;-68
2021/03/26 03:13:00;;;;;;;11.13;9.97;;;;;;;4.91;87.54;98470.06;5018949;28;20223;-69
2021/03/26 03:15:30;;;;;;;10.60;9.50;;;;;;;4.99;87.91;98472.97;5019341;28;20682;-69
2021/03/26 03:18:01;;;;;;;11.57;10.57;;;;;;;4.95;87.44;98473.31;5017756;28;20200;-72
2021/03/26 03:20:35;;;;;;;12.03;10.83;;;;;;;5.06;87.45;98475.94;5018550;28;20248;-68
2021/03/26 03:23:08;;;;;;;12.30;10.80;;;;;;;4.95;87.92;98478.56;5018505;28;20502;-68
2021/03/26 03:25:36;;;;;;;10.50;9.50;;;;;;;5.24;86.61;98478.13;5016869;28;20203;-68
2021/03/26 03:28:12;;;;;;;12.20;10.07;;;;;;;5.20;86.43;98478.38;5017078;28;20235;-69
2021/03/26 03:30:46;;;;;;;11.37;10.27;;;;;;;5.17;86.56;98480.38;5017785;28;20614;-69
2021/03/26 03:33:17;;;;;;;11.37;9.67;;;;;;;5.04;86.82;98475.22;5015644;28;20236;-69
2021/03/26 03:35:51;;;;;;;12.57;11.20;;;;;;;5.12;86.60;98482.53;5018069;28;20212;-67
2021/03/26 03:38:28;;;;;;;11.23;10.13;;;;;;;4.99;87.81;98474.75;5017415;28;20445;-69
2021/03/26 03:41:00;;;;;;;11.77;10.57;;;;;;;5.03;87.21;98478.81;5018879;28;20204;-69
2021/03/26 03:43:32;;;;;;;11.83;9.80;;;;;;;4.99;87.68;98477.38;5018293;28;20208;-71
2021/03/26 03:46:03;;;;;;;10.60;9.60;;;;;;;4.91;88.12;98472.69;5016593;28;20323;-70
2021/03/26 03:48:34;;;;;;;11.27;10.13;;;;;;;4.93;88.59;98479.53;5017569;28;20239;-69
2021/03/26 03:51:03;;;;;;;12.10;10.57;;;;;;;4.95;87.95;98479.41;5019169;28;20270;-69
2021/03/26 03:53:34;;;;;;;13.03;10.70;;;;;;;4.94;88.32;98475.13;5020750;28;20204;-68
2021/03/26 03:56:05;;;;;;;12.50;11.27;;;;;;;4.98;88.29;98484.44;5020530;28;20235;-68
2021/03/26 03:58:36;;;;;;;11.80;9.67;;;;;;;4.90;88.54;98479.75;5023557;28;20200;-70
2021/03/26 04:01:06;;;;;;;12.13;10.27;;;;;;;5.06;87.54;98478.56;5020258;28;20204;-71
2021/03/26 04:03:36;;;;;;;12.47;11.13;;;;;;;4.95;88.92;98471.53;5018043;28;20216;-67
2021/03/26 04:06:05;;;;;;;11.67;10.40;;;;;;;4.98;88.45;98470.44;5019609;28;20200;-68
2021/03/26 04:08:36;;;;;;;11.67;9.93;;;;;;;4.95;88.40;98473.31;5018379;28;20319;-68
2021/03/26 04:11:10;;;;;;;14.97;11.33;;;;;;;4.86;88.92;98470.44;5021446;28;20553;-71
2021/03/26 04:13:41;;;;;;;11.97;9.97;;;;;;;4.92;88.38;98472.59;5018773;28;20200;-68
2021/03/26 04:16:11;;;;;;;13.57;10.93;;;;;;;4.90;88.84;98474.50;5018659;28;20716;-72
2021/03/26 04:18:40;;;;;;;10.93;9.83;;;;;;;4.99;87.81;98477.38;5016679;28;20412;-68
2021/03/26 04:21:11;;;;;;;11.97;10.67;;;;;;;5.04;88.17;98476.09;5017905;28;20236;-70
2021/03/26 04:23:40;;;;;;;12.03;10.83;;;;;;;4.97;88.26;98476.66;5022380;28;20227;-66
2021/03/26 04:26:14;;;;;;;11.67;10.03;;;;;;;5.03;87.86;98470.94;5020501;28;20210;-70
2021/03/26 04:28:44;;;;;;;10.93;9.77;;;;;;;5.13;86.88;98478.94;5019590;28;20791;-68
2021/03/26 04:31:16;;;;;;;11.80;10.60;;;;;;;5.06;87.27;98478.56;5019065;28;20231;-68
2021/03/26 04:33:44;;;;;;;11.47;10.00;;;;;;;5.19;86.81;98471.44;5017607;28;20220;-70
2021/03/26 04:36:14;;;;;;;12.53;11.23;;;;;;;5.15;86.47;98474.41;5020805;28;20263;-70
2021/03/26 04:38:44;;;;;;;15.33;11.37;;;;;;;5.10;86.23;98474.75;5018723;28;20193;-69
2021/03/26 04:41:18;;;;;;;10.70;9.67;;;;;;;5.01;87.01;98471.06;5022147;28;20657;-72
2021/03/26 04:43:49;;;;;;;15.43;11.07;;;;;;;4.95;86.83;98470.69;5014624;28;20232;-72
2021/03/26 04:46:21;;;;;;;11.47;10.30;;;;;;;4.93;87.42;98474.25;5018859;28;20523;-68
2021/03/26 04:48:53;;;;;;;11.60;9.67;;;;;;;4.99;87.21;98472.97;5015163;28;20235;-69
2021/03/26 04:51:24;;;;;;;11.33;10.17;;;;;;;5.04;87.04;98470.84;5016067;28;20380;-69
2021/03/26 04:53:56;;;;;;;11.23;10.03;;;;;;;5.21;85.87;98466.06;5021945;28;20927;-68
2021/03/26 04:56:26;;;;;;;11.13;10.03;;;;;;;5.12;86.01;98465.00;5020714;28;20673;-69
2021/03/26 04:58:57;;;;;;;11.70;10.40;;;;;;;5.01;86.71;98464.97;5015711;28;20213;-69
2021/03/26 05:01:28;;;;;;;12.70;11.43;;;;;;;4.90;87.29;98463.13;5021936;28;20969;-67
2021/03/26 05:03:58;;;;;;;12.03;10.43;;;;;;;4.81;87.63;98453.34;5016816;28;20413;-66
2021/03/26 05:06:29;;;;;;;12.30;11.10;;;;;;;4.71;88.81;98453.19;5020543;28;20627;-69
2021/03/26 05:09:01;;;;;;;12.77;10.97;;;;;;;4.73;89.05;98467.88;5022011;28;20228;-69
2021/03/26 05:11:32;;;;;;;12.83;11.10;;;;;;;4.64;88.79;98471.22;5019469;28;20228;-71
2021/03/26 05:14:02;;;;;;;11.90;10.70;;;;;;;4.67;88.89;98464.88;5022891;28;20204;-70
2021/03/26 05:16:34;;;;;;;14.30;11.00;;;;;;;4.83;88.51;98462.78;5022705;28;20208;-69
2021/03/26 05:19:08;;;;;;;11.40;10.40;;;;;;;4.88;87.64;98460.66;5021937;28;20684;-69
2021/03/26 05:21:40;;;;;;;12.33;11.13;;;;;;;4.90;88.03;98460.50;5016818;28;20228;-71
2021/03/26 05:24:19;;;;;;;11.87;10.60;;;;;;;4.93;87.78;98468.19;5018941;28;20342;-72
2021/03/26 05:26:47;;;;;;;11.93;10.67;;;;;;;4.91;88.20;98470.06;5019803;28;20282;-70
2021/03/26 05:29:15;;;;;;;12.10;10.67;;;;;;;4.89;88.66;98471.97;5017670;28;20236;-71
2021/03/26 05:31:49;;;;;;;11.40;10.17;;;;;;;4.89;88.34;98466.72;5020791;28;20228;-70
2021/03/26 05:34:19;;;;;;;12.23;10.73;;;;;;;4.86;88.17;98467.81;5019838;28;20839;-70
2021/03/26 05:36:55;;;;;;;10.70;9.80;;;;;;;4.84;88.29;98464.47;5018442;28;20211;-70
2021/03/26 05:39:27;;;;;;;12.13;10.73;;;;;;;4.86;88.63;98462.56;5020215;28;20212;-69
2021/03/26 05:42:21;;;;;;;12.07;10.87;;;;;;;4.96;88.07;98472.34;5020264;28;20220;-71
2021/03/26 05:44:54;;;;;;;12.40;10.63;;;;;;;5.06;86.96;98470.69;5019127;28;20200;-72
2021/03/26 05:47:31;;;;;;;11.00;9.90;;;;;;;5.06;86.59;98468.91;5019045;28;20215;-69
2021/03/26 05:50:32;;;;;;;14.53;10.73;;;;;;;5.03;87.05;98476.19;5014873;28;20234;-70
2021/03/26 05:53:09;;;;;;;14.97;11.37;;;;;;;5.08;86.91;98474.03;5019502;28;20231;-67
2021/03/26 05:55:44;;;;;;;11.67;10.53;;;;;;;5.10;86.34;98472.13;5016602;28;20204;-68
2021/03/26 05:58:25;;;;;;;12.73;11.30;;;;;;;5.10;86.16;98480.00;5018984;28;20583;-71
2021/03/26 06:01:07;;;;;;;15.27;11.33;;;;;;;5.20;85.32;98485.41;5019512;28;20212;-71
2021/03/26 06:03:47;;;;;;;12.93;11.47;;;;;;;5.18;85.69;98488.16;5017440;28;20230;-67
2021/03/26 06:06:37;;;;;;;12.33;10.73;;;;;;;5.18;85.61;98484.69;5018597;28;20212;-69
2021/03/26 06:09:26;;;;;;;14.90;10.83;;;;;;;5.25;85.35;98488.50;5016877;28;20255;-70
2021/03/26 06:12:06;;;;;;;13.47;11.27;;;;;;;5.38;84.59;98487.59;5011135;28;20743;-68
2021/03/26 06:14:48;;;;;;;11.97;10.70;;;;;;;5.38;84.79;98487.59;5017175;28;20227;-69
2021/03/26 06:17:38;;;;;;;12.10;10.87;;;;;;;5.40;84.78;98491.75;5017671;28;20208;-69
2021/03/26 06:20:22;;;;;;;12.60;11.30;;;;;;;5.59;84.74;98485.91;5012432;28;20611;-66
2021/03/26 06:23:15;;;;;;;14.40;11.53;;;;;;;5.84;82.74;98483.97;5016936;28;20230;-67
2021/03/26 06:25:53;;;;;;;12.37;11.07;;;;;;;5.87;82.61;98482.88;5014359;28;20448;-67
2021/03/26 06:28:42;;;;;;;12.00;10.83;;;;;;;5.87;82.99;98480.25;5016317;28;20232;-69
2021/03/26 06:31:41;;;;;;;12.77;10.67;;;;;;;5.93;82.96;98483.25;5018302;28;20224;-66
2021/03/26 06:34:51;;;;;;;12.87;10.93;;;;;;;6.05;82.08;98486.72;5012691;28;20278;-69
2021/03/26 06:37:36;;;;;;;12.83;11.53;;;;;;;6.03;82.04;98490.41;5015558;28;20212;-67
2021/03/26 06:40:41;;;;;;;15.40;11.07;;;;;;;6.00;82.26;98486.22;5017132;28;20705;-65
2021/03/26 06:43:29;;;;;;;12.10;10.90;;;;;;;6.15;81.51;98485.97;5016722;28;20228;-69
2021/03/26 06:46:14;;;;;;;13.60;12.00;;;;;;;6.21;80.95;98480.22;5011958;28;20228;-70
2021/03/26 06:48:55;;;;;;;12.53;11.27;;;;;;;6.44;80.59;98486.25;5017800;28;20216;-69
2021/03/26 06:51:39;;;;;;;14.57;11.20;;;;;;;6.80;78.30;98475.44;5018581;28;20311;-68
2021/03/26 06:54:36;;;;;;;16.77;12.37;;;;;;;6.89;78.72;98485.19;5016402;28;20209;-72
2021/03/26 06:57:15;;;;;;;16.40;12.30;;;;;;;7.32;77.15;98482.53;5019455;28;20523;-71
2021/03/26 06:59:52;;;;;;;18.87;11.80;;;;;;;7.73;74.40;98479.94;5016482;28;20704;-71
2021/03/26 07:02:47;;;;;;;19.13;11.90;;;;;;;7.77;74.20;98471.63;5014377;28;20225;-69
2021/03/26 07:05:35;;;;;;;20.43;13.27;;;;;;;7.87;71.59;98476.09;5014868;28;21942;-70
2021/03/26 07:08:25;;;;;;;16.23;11.97;;;;;;;7.71;73.02;98479.22;5018422;28;20219;-70
2021/03/26 07:11:04;;;;;;;12.50;10.77;;;;;;;7.86;72.56;98477.88;5016276;28;20583;-68
2021/03/26 07:13:50;;;;;;;15.37;10.83;;;;;;;8.42;68.16;98480.06;5015903;28;20199;-69
2021/03/26 07:16:38;;;;;;;15.00;11.53;;;;;;;8.23;69.70;98485.19;5019453;28;20206;-69
2021/03/26 07:19:27;;;;;;;14.00;10.43;;;;;;;8.19;70.74;98475.88;5015483;28;20230;-69
2021/03/26 07:22:11;;;;;;;16.20;11.37;;;;;;;8.48;68.26;98475.06;5013425;28;20225;-70
2021/03/26 07:25:16;;;;;;;11.70;10.50;;;;;;;8.50;69.46;98473.16;5016714;28;20207;-69
2021/03/26 07:27:51;;;;;;;15.50;10.30;;;;;;;8.71;67.58;98471.34;5019176;28;20204;-69
2021/03/26 07:30:28;;;;;;;20.97;10.83;;;;;;;8.90;66.46;98479.25;5021565;28;20270;-69
2021/03/26 07:33:31;;;;;;;11.03;9.93;;;;;;;8.72;67.75;98480.94;5021723;28;20269;-70
2021/03/26 07:36:07;;;;;;;13.90;11.20;;;;;;;8.91;66.77;98480.91;5013773;28;20576;-69
2021/03/26 07:39:07;;;;;;;16.63;11.77;;;;;;;9.05;67.71;98479.63;5021643;28;20226;-68
2021/03/26 07:41:46;;;;;;;12.30;10.17;;;;;;;9.19;65.85;98480.97;4996306;28;20224;-71
2021/03/26 07:44:43;;;;;;;10.77;9.70;;;;;;;9.24;66.12;98480.56;5020522;28;20208;-70
2021/03/26 07:47:28;;;;;;;14.47;11.90;;;;;;;9.65;64.03;98485.56;5018014;28;20856;-67
2021/03/26 07:50:09;;;;;;;13.10;10.77;;;;;;;9.96;62.13;98480.81;5020433;28;20553;-66
2021/03/26 07:52:43;;;;;;;14.17;11.20;;;;;;;9.76;62.36;98487.19;5021114;28;20261;-69
2021/03/26 07:55:20;;;;;;;12.87;11.00;;;;;;;9.88;61.58;98486.03;5024184;28;20196;-68
2021/03/26 07:57:56;;;;;;;14.37;10.53;;;;;;;9.98;60.50;98486.81;5023220;28;20218;-70
2021/03/26 08:00:48;;;;;;;18.30;11.90;;;;;;;9.83;60.87;98498.84;5021120;28;20200;-70
2021/03/26 08:03:46;;;;;;;13.07;11.47;;;;;;;9.68;61.90;98494.06;5016113;28;20716;-70
2021/03/26 08:06:44;;;;;;;14.93;11.37;;;;;;;9.73;63.58;98503.38;5020609;28;20723;-71
2021/03/26 08:09:23;;;;;;;12.23;10.53;;;;;;;9.82;63.75;98505.13;4997642;28;20243;-65
2021/03/26 08:11:57;;;;;;;14.50;11.73;;;;;;;9.71;62.73;98492.94;5019542;28;20228;-65
2021/03/26 08:14:38;;;;;;;13.07;11.80;;;;;;;9.69;62.44;98503.66;5021222;28;20200;-71
2021/03/26 08:17:18;;;;;;;15.00;11.67;;;;;;;9.81;62.58;98495.53;5020884;28;20672;-72
2021/03/26 08:19:57;;;;;;;16.33;13.13;;;;;;;9.77;62.33;98499.44;5018714;28;20413;-69
2021/03/26 08:22:31;;;;;;;14.97;12.33;;;;;;;9.68;62.90;98496.69;5021749;28;20231;-69
2021/03/26 08:25:17;;;;;;;14.90;11.93;;;;;;;9.78;62.53;98496.66;5019362;28;20266;-68
2021/03/26 08:27:53;;;;;;;14.40;11.30;;;;;;;9.93;61.88;98491.72;5017759;28;20391;-69
2021/03/26 08:30:46;;;;;;;12.97;11.60;;;;;;;10.20;60.50;98489.19;5019677;28;20251;-69
2021/03/26 08:34:00;;;;;;;12.67;11.37;;;;;;;10.41;59.41;98491.59;5003486;28;20236;-70
2021/03/26 08:36:37;;;;;;;12.70;11.30;;;;;;;10.36;60.66;98493.81;5021362;28;20513;-71
2021/03/26 08:39:23;;;;;;;12.67;11.37;;;;;;;10.67;60.22;98490.84;5017987;28;20239;-72
2021/03/26 08:41:55;;;;;;;13.63;11.80;;;;;;;10.92;59.27;98491.88;5019855;28;20220;-68
2021/03/26 08:44:22;;;;;;;12.87;10.90;;;;;;;11.36;57.26;98496.28;5020783;28;20200;-72
2021/03/26 08:46:55;;;;;;;12.63;11.43;;;;;;;11.57;56.04;98493.28;5020257;28;20766;-72
2021/03/26 08:49:35;;;;;;;12.60;10.67;;;;;;;11.63;56.99;98501.59;5021160;28;20640;-71
2021/03/26 08:52:16;;;;;;;12.07;10.97;;;;;;;11.76;55.77;98499.31;5019574;28;20239;-69
2021/03/26 08:54:54;;;;;;;11.03;9.93;;;;;;;11.44;56.95;98492.84;5018962;28;20721;-70
2021/03/26 08:57:29;;;;;;;12.17;10.90;;;;;;;11.39;57.95;98493.34;5017847;28;20211;-70
2021/03/26 09:00:08;;;;;;;11.77;10.57;;;;;;;11.66;57.50;98490.66;5017104;28;20203;-69
2021/03/26 09:03:13;;;;;;;12.70;11.33;;;;;;;11.72;56.78;98495.34;5020030;28;20226;-71
2021/03/26 09:06:10;;;;;;;12.63;11.53;;;;;;;11.70;56.47;98495.47;5015050;28;20220;-71
2021/03/26 09:08:55;;;;;;;10.33;9.43;;;;;;;12.09;55.34;98491.50;5009464;28;20808;-71
2021/03/26 09:11:34;;;;;;;11.57;10.13;;;;;;;12.26;54.59;98494.19;5018407;28;20227;-72
2021/03/26 09:14:23;;;;;;;12.10;10.93;;;;;;;12.13;54.18;98484.88;5020699;28;20299;-72
2021/03/26 09:16:54;;;;;;;10.47;9.43;;;;;;;12.25;56.01;98487.22;5014638;28;20205;-70
2021/03/26 09:19:26;;;;;;;17.93;10.60;;;;;;;12.48;53.20;98483.97;5017375;28;20631;-72
2021/03/26 09:21:58;;;;;;;11.90;10.20;;;;;;;12.08;55.50;98475.72;5021163;28;20250;-71
2021/03/26 09:24:34;;;;;;;12.43;10.83;;;;;;;12.13;55.75;98476.91;5021997;28;20204;-69
2021/03/26 09:27:10;;;;;;;11.60;10.50;;;;;;;12.43;54.42;98473.81;5019433;28;20227;-70
2021/03/26 09:29:43;;;;;;;11.23;10.10;;;;;;;12.44;52.72;98476.31;5019301;28;20267;-74
2021/03/26 09:32:17;;;;;;;12.53;10.40;;;;;;;12.65;52.84;98469.66;5018636;28;20669;-69
2021/03/26 09:34:50;;;;;;;11.77;10.60;;;;;;;12.76;52.29;98475.69;5017866;28;20205;-69
2021/03/26 09:37:21;;;;;;;11.63;10.23;;;;;;;12.69;53.53;98473.69;5014718;28;20354;-71
2021/03/26 09:39:51;;;;;;;10.37;9.37;;;;;;;12.84;52.09;98470.34;5017321;28;20457;-71
2021/03/26 09:42:29;;;;;;;12.83;9.77;;;;;;;12.76;53.34;98467.69;5017854;28;20232;-67
2021/03/26 09:45:03;;;;;;;12.43;10.53;;;;;;;13.06;52.10;98465.31;5018973;28;20226;-73
2021/03/26 09:47:33;;;;;;;11.90;10.77;;;;;;;12.96;51.77;98466.34;5016960;28;20774;-71
2021/03/26 09:50:07;;;;;;;14.20;10.50;;;;;;;13.29;49.15;98460.16;5014630;28;20333;-69
2021/03/26 09:52:38;;;;;;;11.00;9.70;;;;;;;13.38;49.13;98461.78;5016964;28;20235;-72
2021/03/26 09:55:08;;;;;;;10.87;9.77;;;;;;;13.11;50.48;98452.38;5017046;28;20680;-71
2021/03/26 09:57:45;;;;;;;10.73;9.37;;;;;;;13.11;50.40;98450.53;5014614;28;20247;-71
2021/03/26 10:00:51;;;;;;;13.77;9.63;;;;;;;13.01;50.92;98447.22;5013981;28;20219;-70
2021/03/26 10:03:29;;;;;;;12.10;9.17;;;;;;;13.05;50.95;98437.91;5012788;28;20605;-72
2021/03/26 10:06:00;;;;;;;11.63;9.13;;;;;;;13.36;50.53;98436.31;5013771;28;20215;-70
2021/03/26 10:11:15;;;;;;;9.17;8.07;;;;;;;13.78;48.97;98429.88;4999304;28;20228;-72
2021/03/26 10:13:46;;;;;;;9.90;9.00;;;;;;;13.82;48.66;98425.84;5017852;28;20200;-72
2021/03/26 10:16:16;;;;;;;9.60;8.77;;;;;;;13.84;48.87;98420.38;5017969;28;20402;-71
2021/03/26 10:18:49;;;;;;;9.90;8.53;;;;;;;13.60;49.34;98419.47;5019089;28;20205;-72
2021/03/26 10:21:23;;;;;;;11.10;8.83;;;;;;;13.82;49.27;98417.03;5019030;28;20399;-70
2021/03/26 10:24:09;;;;;;;11.80;9.37;;;;;;;14.10;47.88;98409.38;5020593;28;20199;-72
2021/03/26 10:26:40;;;;;;;12.83;10.07;;;;;;;14.02;47.26;98406.78;5018366;28;20611;-71
2021/03/26 10:29:16;;;;;;;10.40;8.73;;;;;;;14.23;46.30;98400.00;5016590;28;20228;-68
2021/03/26 10:31:46;;;;;;;8.73;7.77;;;;;;;14.10;47.03;98397.91;5021249;28;20226;-72
2021/03/26 10:34:17;;;;;;;9.40;8.37;;;;;;;14.28;46.77;98393.09;5015368;28;22230;-71
2021/03/26 10:36:55;;;;;;;8.60;7.43;;;;;;;14.53;45.57;98389.41;5016120;28;20665;-70
2021/03/26 10:39:25;;;;;;;8.10;7.33;;;;;;;15.16;44.63;98383.81;5010583;28;20656;-70
2021/03/26 10:42:06;;;;;;;8.37;7.57;;;;;;;14.76;44.54;98381.38;5013950;28;20238;-72
2021/03/26 10:44:47;;;;;;;8.33;7.23;;;;;;;14.73;44.40;98379.94;5019257;28;20680;-70
2021/03/26 10:47:21;;;;;;;8.50;7.60;;;;;;;14.53;44.91;98378.72;5018490;28;20243;-72
2021/03/26 10:49:51;;;;;;;8.17;7.37;;;;;;;14.59;45.76;98381.53;5017010;28;20708;-73
2021/03/26 10:52:23;;;;;;;9.17;7.47;;;;;;;14.48;46.56;98366.78;5016618;28;20284;-73
2021/03/26 10:54:54;;;;;;;8.23;7.10;;;;;;;14.66;46.26;98362.97;5019373;28;20444;-72
2021/03/26 10:57:36;;;;;;;9.70;7.33;;;;;;;14.99;44.65;98361.81;5019976;28;20200;-72
2021/03/26 11:00:14;;;;;;;9.27;7.37;;;;;;;15.40;43.76;98365.88;5017799;28;20211;-69
2021/03/26 11:02:47;;;;;;;8.00;7.20;;;;;;;15.49;43.20;98354.88;5017634;28;20228;-72
2021/03/26 11:05:23;;;;;;;7.03;6.43;;;;;;;15.58;42.31;98342.25;5018415;28;20535;-71
2021/03/26 11:08:17;;;;;;;8.17;7.30;;;;;;;15.17;43.35;98345.44;5019173;28;20219;-71
2021/03/26 11:10:46;;;;;;;7.77;7.07;;;;;;;14.85;44.45;98340.31;5015908;28;20588;-73
2021/03/26 11:13:20;;;;;;;8.10;7.30;;;;;;;14.80;44.39;98342.69;5015008;28;20643;-72
2021/03/26 11:15:49;;;;;;;7.40;6.73;;;;;;;15.09;43.72;98341.03;5016667;28;20216;-70
2021/03/26 11:18:18;;;;;;;9.03;7.70;;;;;;;15.42;43.04;98331.81;5015495;28;20208;-71
2021/03/26 11:20:49;;;;;;;9.30;8.40;;;;;;;15.75;42.20;98331.34;5020299;28;20210;-69
2021/03/26 11:23:24;;;;;;;8.43;7.40;;;;;;;15.80;42.04;98328.94;5018357;28;20254;-72
2021/03/26 11:25:54;;;;;;;7.73;7.13;;;;;;;16.45;40.67;98326.25;5016588;28;20200;-71
2021/03/26 11:28:27;;;;;;;8.67;7.83;;;;;;;16.43;40.91;98322.13;5018762;28;20200;-71
2021/03/26 11:30:59;;;;;;;8.47;7.67;;;;;;;17.06;38.93;98314.13;5014567;28;20716;-69
2021/03/26 11:33:38;;;;;;;8.03;7.23;;;;;;;16.97;39.25;98317.13;5018439;28;20219;-70
2021/03/26 11:36:29;;;;;;;9.73;7.10;;;;;;;16.93;38.69;98306.81;5015211;28;21175;-71
2021/03/26 11:39:00;;;;;;;7.77;7.17;;;;;;;16.33;38.68;98301.06;5016912;28;20212;-68
2021/03/26 11:41:32;;;;;;;8.73;7.23;;;;;;;15.96;40.31;98308.34;5019904;28;20232;-69
2021/03/26 11:44:02;;;;;;;8.03;7.33;;;;;;;16.10;39.34;98295.94;5019433;28;20667;-69
2021/03/26 11:46:40;;;;;;;10.57;7.60;;;;;;;16.30;39.52;98298.78;5017061;28;20203;-67
2021/03/26 11:49:16;;;;;;;8.47;7.30;;;;;;;16.27;40.00;98288.47;5016468;28;20212;-67
2021/03/26 11:51:47;;;;;;;8.80;6.87;;;;;;;15.96;39.76;98284.28;5016134;28;20220;-68
2021/03/26 11:54:27;;;;;;;8.83;7.77;;;;;;;15.85;40.50;98282.91;5018393;28;20212;-68
2021/03/26 11:57:03;;;;;;;7.60;6.93;;;;;;;16.51;39.62;98279.19;5017317;28;20212;-69
2021/03/26 12:00:01;;;;;;;7.37;6.47;;;;;;;17.04;37.59;98276.00;5020076;28;20215;-68
2021/03/26 12:02:49;;;;;;;10.20;7.37;;;;;;;18.16;37.46;98269.50;5016725;28;20220;-65
2021/03/26 12:05:32;;;;;;;6.90;6.20;;;;;;;18.61;35.23;98262.63;5016007;28;20204;-67
2021/03/26 12:08:20;;;;;;;8.50;7.60;;;;;;;18.91;34.51;98262.16;5013920;28;20201;-66